createdAt,value
2023-01-19T00:26:23.310Z,38.63
2023-01-19T00:28:53.038Z,40.67
2023-01-19T00:31:21.796Z,41.00
2023-01-19T00:33:52.720Z,41.33
2023-01-19T00:36:21.571Z,43.20
2023-01-19T00:38:50.204Z,40.90
2023-01-19T00:41:19.109Z,45.30
2023-01-19T00:43:48.070Z,41.40
2023-01-19T00:46:16.417Z,39.30
2023-01-19T00:48:45.113Z,38.37
2023-01-19T00:51:13.469Z,45.23
2023-01-19T00:53:42.081Z,41.00
2023-01-19T00:56:10.447Z,49.23
2023-01-19T00:58:39.215Z,41.73
2023-01-19T01:01:08.935Z,42.13
2023-01-19T01:03:38.093Z,47.63
2023-01-19T01:06:08.359Z,46.17
2023-01-19T01:08:37.081Z,37.03
2023-01-19T01:11:05.782Z,45.20
2023-01-19T01:13:34.562Z,38.70
2023-01-19T01:16:03.108Z,40.73
2023-01-19T01:18:33.241Z,42.83
2023-01-19T01:21:05.985Z,36.47
2023-01-19T01:23:35.053Z,40.83
2023-01-19T01:26:03.486Z,35.13
2023-01-19T01:28:32.472Z,36.10
2023-01-19T01:31:01.603Z,45.63
2023-01-19T01:33:40.821Z,33.63
2023-01-19T01:36:12.317Z,40.30
2023-01-19T01:38:41.436Z,36.73
2023-01-19T01:41:10.136Z,31.73
2023-01-19T01:43:47.552Z,37.47
2023-01-19T01:46:17.214Z,37.07
2023-01-19T01:48:51.119Z,36.10
2023-01-19T01:51:25.577Z,42.67
2023-01-19T01:54:14.261Z,39.43
2023-01-19T01:56:46.095Z,40.53
2023-01-19T01:59:25.661Z,39.43
2023-01-19T02:02:13.495Z,41.43
2023-01-19T02:04:55.589Z,46.57
2023-01-19T02:07:50.564Z,37.10
2023-01-19T02:10:37.462Z,38.93
2023-01-19T02:13:18.416Z,37.20
2023-01-19T02:15:47.314Z,37.83
2023-01-19T02:18:15.815Z,36.70
2023-01-19T02:20:52.215Z,34.73
2023-01-19T02:23:34.619Z,39.20
2023-01-19T02:26:04.344Z,39.37
2023-01-19T02:28:33.161Z,39.03
2023-01-19T02:31:01.932Z,33.97
2023-01-19T02:33:31.896Z,37.53
2023-01-19T02:36:02.225Z,33.70
2023-01-19T02:38:31.479Z,34.97
2023-01-19T02:41:03.721Z,29.13
2023-01-19T02:43:33.118Z,33.17
2023-01-19T02:46:02.338Z,32.27
2023-01-19T02:48:31.346Z,33.33
2023-01-19T02:51:04.341Z,35.57
2023-01-19T02:54:04.793Z,36.77
2023-01-19T02:56:56.593Z,38.00
2023-01-19T02:59:35.652Z,38.20
2023-01-19T03:02:18.712Z,32.33
2023-01-19T03:05:00.523Z,34.73
2023-01-19T03:07:41.474Z,33.93
2023-01-19T03:10:18.196Z,38.97
2023-01-19T03:12:53.387Z,38.63
2023-01-19T03:15:24.875Z,46.80
2023-01-19T03:17:54.671Z,40.03
2023-01-19T03:20:28.246Z,37.13
2023-01-19T03:23:02.369Z,35.87
2023-01-19T03:25:34.433Z,35.33
2023-01-19T03:28:05.501Z,37.43
2023-01-19T03:30:37.480Z,37.50
2023-01-19T03:33:10.169Z,30.47
2023-01-19T03:35:44.721Z,31.73
2023-01-19T03:38:17.691Z,34.27
2023-01-19T03:40:47.489Z,32.37
2023-01-19T03:43:19.605Z,34.37
2023-01-19T03:45:49.366Z,37.13
2023-01-19T03:48:19.236Z,35.63
2023-01-19T03:50:47.577Z,34.30
2023-01-19T03:53:18.483Z,35.90
2023-01-19T03:55:48.705Z,35.50
2023-01-19T03:58:18.998Z,32.63
2023-01-19T04:00:47.341Z,38.90
2023-01-19T04:03:17.829Z,26.87
2023-01-19T04:05:46.392Z,33.13
2023-01-19T04:08:15.081Z,28.67
2023-01-19T04:10:43.548Z,34.67
2023-01-19T04:13:12.209Z,37.23
2023-01-19T04:15:42.013Z,34.13
2023-01-19T04:18:10.856Z,35.73
2023-01-19T04:20:39.283Z,31.97
2023-01-19T04:23:07.910Z,31.00
2023-01-19T04:25:37.998Z,39.03
2023-01-19T04:28:07.679Z,34.67
2023-01-19T04:30:36.021Z,35.90
2023-01-19T04:33:06.278Z,37.43
2023-01-19T04:35:35.293Z,37.13
2023-01-19T04:38:03.944Z,32.30
2023-01-19T04:40:32.283Z,30.47
2023-01-19T04:43:01.358Z,26.10
2023-01-19T04:45:29.973Z,25.97
2023-01-19T04:47:58.816Z,34.47
2023-01-19T04:50:28.509Z,36.13
2023-01-19T04:52:57.570Z,40.63
2023-01-19T04:55:26.221Z,38.90
2023-01-19T04:57:54.954Z,37.90
2023-01-19T05:00:23.571Z,40.27
2023-01-19T05:02:52.520Z,38.60
2023-01-19T05:05:21.631Z,41.67
2023-01-19T05:07:51.629Z,36.87
2023-01-19T05:10:20.304Z,38.13
2023-01-19T05:12:48.915Z,38.53
2023-01-19T05:15:17.375Z,29.60
2023-01-19T05:17:46.081Z,35.47
2023-01-19T05:20:16.353Z,41.17
2023-01-19T05:22:49.580Z,34.80
2023-01-19T05:25:19.736Z,31.33
2023-01-19T05:27:48.686Z,25.93
2023-01-19T05:30:17.434Z,31.10
2023-01-19T05:32:46.133Z,27.03
2023-01-19T05:35:16.661Z,32.67
2023-01-19T05:37:47.160Z,28.57
2023-01-19T05:40:15.623Z,28.50
2023-01-19T05:42:45.715Z,21.43
2023-01-19T05:45:14.184Z,26.37
2023-01-19T05:47:42.772Z,33.00
2023-01-19T05:50:12.022Z,26.30
2023-01-19T05:52:40.678Z,22.40
2023-01-19T05:55:09.943Z,23.30
2023-01-19T05:57:38.614Z,25.40
2023-01-19T06:00:10.083Z,25.43
2023-01-19T06:02:39.257Z,22.97
2023-01-19T06:05:08.111Z,31.77
2023-01-19T06:07:36.953Z,22.80
2023-01-19T06:10:05.946Z,21.03
2023-01-19T06:12:34.694Z,24.37
2023-01-19T06:15:03.082Z,28.03
2023-01-19T06:17:34.741Z,22.43
2023-01-19T06:20:03.197Z,24.07
2023-01-19T06:22:31.927Z,26.90
2023-01-19T06:25:00.293Z,22.67
2023-01-19T06:27:28.906Z,21.57
2023-01-19T06:29:57.270Z,26.10
2023-01-19T06:32:25.925Z,22.47
2023-01-19T06:34:55.668Z,22.97
2023-01-19T06:37:26.763Z,26.60
2023-01-19T06:39:55.233Z,26.83
2023-01-19T06:42:23.915Z,22.00
2023-01-19T06:44:52.235Z,32.70
2023-01-19T06:47:20.931Z,25.63
2023-01-19T06:49:49.509Z,20.67
2023-01-19T06:52:20.510Z,33.87
2023-01-19T06:54:49.778Z,25.87
2023-01-19T06:57:18.825Z,32.30
2023-01-19T06:59:47.249Z,31.00
2023-01-19T07:02:26.388Z,30.10
2023-01-19T07:04:55.502Z,25.90
2023-01-19T07:07:25.925Z,29.70
2023-01-19T07:09:54.461Z,27.70
2023-01-19T07:12:23.232Z,28.17
2023-01-19T07:14:52.695Z,30.90
2023-01-19T07:17:21.378Z,31.07
2023-01-19T07:19:49.775Z,26.83
2023-01-19T07:22:18.606Z,30.17
2023-01-19T07:24:48.391Z,27.50
2023-01-19T07:27:17.386Z,25.40
2023-01-19T07:29:45.810Z,32.90
2023-01-19T07:32:14.778Z,30.07
2023-01-19T07:34:43.175Z,29.47
2023-01-19T07:37:11.868Z,33.90
2023-01-19T07:39:40.235Z,25.67
2023-01-19T07:42:10.196Z,24.23
2023-01-19T07:44:38.642Z,50.70
2023-01-19T07:47:07.499Z,35.13
2023-01-19T07:49:36.435Z,30.23
2023-01-19T07:52:05.279Z,34.23
2023-01-19T07:54:33.900Z,33.40
2023-01-19T07:57:02.950Z,29.93
2023-01-19T07:59:32.778Z,31.90
2023-01-19T08:02:01.609Z,34.13
2023-01-19T08:04:30.233Z,33.00
2023-01-19T08:06:58.889Z,31.53
2023-01-19T08:09:27.227Z,34.17
2023-01-19T08:11:56.279Z,31.40
2023-01-19T08:14:24.601Z,36.95
2023-01-19T08:16:54.808Z,32.47
2023-01-19T08:19:23.291Z,29.17
2023-01-19T08:21:51.980Z,36.30
2023-01-19T08:24:22.827Z,33.63
2023-01-19T08:26:51.648Z,29.40
2023-01-19T08:29:20.110Z,39.40
2023-01-19T08:31:48.827Z,32.60
2023-01-19T08:34:18.739Z,36.80
2023-01-19T08:36:47.723Z,34.43
2023-01-19T08:39:17.946Z,29.80
2023-01-19T08:41:46.662Z,33.13
2023-01-19T08:44:15.957Z,32.43
2023-01-19T08:46:44.764Z,27.87
2023-01-19T08:49:13.207Z,27.70
2023-01-19T08:51:46.873Z,29.20
2023-01-19T08:54:18.521Z,22.43
2023-01-19T08:56:47.481Z,29.17
2023-01-19T08:59:16.876Z,27.60
2023-01-19T09:01:45.762Z,26.80
2023-01-19T09:04:14.331Z,25.20
2023-01-19T09:06:44.400Z,29.97
2023-01-19T09:09:12.805Z,29.70
2023-01-19T09:11:42.398Z,35.90
2023-01-19T09:14:10.822Z,29.27
2023-01-19T09:16:39.558Z,25.23
2023-01-19T09:19:08.622Z,26.23
2023-01-19T09:21:37.587Z,27.17
2023-01-19T09:24:08.930Z,26.97
2023-01-19T09:26:40.501Z,28.20
2023-01-19T09:29:08.957Z,29.67
2023-01-19T09:31:40.148Z,27.10
2023-01-19T09:34:08.618Z,25.27
2023-01-19T09:36:39.495Z,38.03
2023-01-19T09:39:09.338Z,30.33
2023-01-19T09:41:43.076Z,23.03
2023-01-19T09:44:18.584Z,27.20
2023-01-19T09:46:47.706Z,30.27
2023-01-19T09:49:18.143Z,19.37
2023-01-19T09:51:48.881Z,26.83
2023-01-19T09:54:20.696Z,23.33
2023-01-19T09:56:52.904Z,31.17
2023-01-19T09:59:24.657Z,22.37
2023-01-19T10:02:24.932Z,24.37
2023-01-19T10:05:00.570Z,23.13
2023-01-19T10:07:45.992Z,29.60
2023-01-19T10:10:20.781Z,21.40
2023-01-19T10:13:05.439Z,26.17
2023-01-19T10:15:45.660Z,28.17
2023-01-19T10:18:19.931Z,25.80
2023-01-19T10:20:51.988Z,23.70
2023-01-19T10:23:29.676Z,25.70
2023-01-19T10:26:02.117Z,25.97
2023-01-19T10:28:31.722Z,25.53
2023-01-19T10:31:00.276Z,31.47
2023-01-19T10:33:35.736Z,31.27
2023-01-19T10:36:16.345Z,26.47
2023-01-19T10:38:45.493Z,27.33
2023-01-19T10:41:22.182Z,22.83
2023-01-19T10:44:01.053Z,27.43
2023-01-19T10:46:38.725Z,28.27
2023-01-19T10:49:07.933Z,27.73
2023-01-19T10:51:48.762Z,31.10
2023-01-19T10:54:18.143Z,26.83
2023-01-19T10:56:53.370Z,33.87
2023-01-19T10:59:37.752Z,32.70
2023-01-19T11:02:20.285Z,31.23
2023-01-19T11:04:52.996Z,29.10
2023-01-19T11:07:29.368Z,27.67
2023-01-19T11:10:22.410Z,28.63
2023-01-19T11:13:00.949Z,27.13
2023-01-19T11:15:36.558Z,29.13
2023-01-19T11:18:06.798Z,33.70
2023-01-19T11:20:45.841Z,28.70
2023-01-19T11:23:25.756Z,35.87
2023-01-19T11:25:57.068Z,28.43
2023-01-19T11:28:31.243Z,32.10
2023-01-19T11:31:01.687Z,29.60
2023-01-19T11:33:37.333Z,25.13
2023-01-19T11:36:08.491Z,29.47
2023-01-19T11:38:44.167Z,28.67
2023-01-19T11:41:20.103Z,28.23
2023-01-19T11:43:53.301Z,35.63
2023-01-19T11:46:23.648Z,26.43
2023-01-19T11:49:01.819Z,34.00
2023-01-19T11:51:36.635Z,30.20
2023-01-19T11:54:18.852Z,33.90
2023-01-19T11:56:51.940Z,37.00
2023-01-19T11:59:24.113Z,31.50
2023-01-19T12:01:57.753Z,36.47
2023-01-19T12:04:29.590Z,30.70
2023-01-19T12:07:00.216Z,31.50
2023-01-19T12:09:32.318Z,32.57
2023-01-19T12:12:04.939Z,34.17
2023-01-19T12:14:39.624Z,42.27
2023-01-19T12:17:13.957Z,32.23
2023-01-19T12:19:50.516Z,33.97
2023-01-19T12:22:21.286Z,37.10
2023-01-19T12:24:56.571Z,37.40
2023-01-19T12:27:38.262Z,39.70
2023-01-19T12:30:18.338Z,36.93
2023-01-19T12:32:47.208Z,39.27
2023-01-19T12:35:53.215Z,37.67
2023-01-19T12:38:37.517Z,39.97
2023-01-19T12:41:27.802Z,36.80
2023-01-19T12:44:22.799Z,45.10
2023-01-19T12:46:54.547Z,36.37
2023-01-19T12:49:29.093Z,37.20
2023-01-19T12:52:20.072Z,42.93
2023-01-19T12:54:59.650Z,34.63
2023-01-19T12:57:31.630Z,43.83
2023-01-19T13:00:02.087Z,33.10
2023-01-19T13:02:54.214Z,37.13
2023-01-19T13:05:53.544Z,40.40
2023-01-19T13:08:24.061Z,35.33
2023-01-19T13:11:16.055Z,38.63
2023-01-19T13:13:46.641Z,39.20
2023-01-19T13:16:56.150Z,38.37
2023-01-19T13:19:36.330Z,35.43
2023-01-19T13:22:38.106Z,38.13
2023-01-19T13:25:11.653Z,38.30
2023-01-19T13:27:41.786Z,32.63
2023-01-19T13:30:16.785Z,30.13
2023-01-19T13:32:45.488Z,33.57
2023-01-19T13:35:17.835Z,38.27
2023-01-19T13:37:47.233Z,36.70
2023-01-19T13:40:25.440Z,32.50
2023-01-19T13:42:55.492Z,32.43
2023-01-19T13:45:30.450Z,30.87
2023-01-19T13:48:01.893Z,39.43
2023-01-19T13:50:33.176Z,38.67
2023-01-19T13:53:04.629Z,39.70
2023-01-19T13:55:34.490Z,36.70
2023-01-19T13:58:03.134Z,44.67
2023-01-19T14:00:33.408Z,38.73
2023-01-19T14:03:04.229Z,35.97
2023-01-19T14:05:35.362Z,38.57
2023-01-19T14:08:07.410Z,36.80
2023-01-19T14:10:39.781Z,35.87
2023-01-19T14:13:15.600Z,37.17
2023-01-19T14:15:45.171Z,40.93
2023-01-19T14:18:27.170Z,41.10
2023-01-19T14:20:57.961Z,39.03
2023-01-19T14:23:42.862Z,37.23
2023-01-19T14:26:46.424Z,39.10
2023-01-19T14:29:24.573Z,40.13
2023-01-19T14:32:04.850Z,39.63
2023-01-19T14:34:36.098Z,36.40
2023-01-19T14:37:07.441Z,38.07
2023-01-19T14:39:36.965Z,45.33
2023-01-19T14:42:08.153Z,44.43
2023-01-19T14:44:39.749Z,35.97
2023-01-19T14:47:21.698Z,40.93
2023-01-19T14:49:50.485Z,34.77
2023-01-19T14:52:23.389Z,42.13
2023-01-19T14:54:52.901Z,42.93
2023-01-19T14:57:22.611Z,40.60
2023-01-19T14:59:55.175Z,43.20
2023-01-19T15:02:24.808Z,40.03
2023-01-19T15:04:55.377Z,47.10
2023-01-19T15:07:26.161Z,52.30
2023-01-19T15:09:55.366Z,45.37
2023-01-19T15:12:44.135Z,61.40
2023-01-19T15:15:22.749Z,61.43
2023-01-19T15:17:51.796Z,55.03
2023-01-19T15:20:22.623Z,44.67
2023-01-19T15:22:51.464Z,42.10
2023-01-19T15:25:23.207Z,46.63
2023-01-19T15:27:53.342Z,41.30
2023-01-19T15:30:24.733Z,43.53
2023-01-19T15:32:53.362Z,41.37
2023-01-19T15:35:24.005Z,45.63
2023-01-19T15:37:52.459Z,36.23
2023-01-19T15:40:23.197Z,43.60
2023-01-19T15:42:53.024Z,48.77
2023-01-19T15:45:33.511Z,38.20
2023-01-19T15:48:03.905Z,46.47
2023-01-19T15:50:33.177Z,41.77
2023-01-19T15:53:02.151Z,39.47
2023-01-19T15:55:31.114Z,39.43
2023-01-19T15:58:02.439Z,39.33
2023-01-19T16:00:31.906Z,40.80
2023-01-19T16:03:00.713Z,49.70
2023-01-19T16:05:41.761Z,43.40
2023-01-19T16:08:11.048Z,47.53
2023-01-19T16:10:39.798Z,41.40
2023-01-19T16:13:09.784Z,33.13
2023-01-19T16:15:39.717Z,41.33
2023-01-19T16:18:08.171Z,38.43
2023-01-19T16:20:36.824Z,43.37
2023-01-19T16:23:20.856Z,41.83
2023-01-19T16:25:58.248Z,38.67
2023-01-19T16:28:28.872Z,39.07
2023-01-19T16:30:57.734Z,40.13
2023-01-19T16:33:26.261Z,43.87
2023-01-19T16:35:55.192Z,38.83
2023-01-19T16:38:24.041Z,45.13
2023-01-19T16:40:52.650Z,48.47
2023-01-19T16:43:21.032Z,43.80
2023-01-19T16:46:02.649Z,42.07
2023-01-19T16:48:32.253Z,44.20
2023-01-19T16:51:03.080Z,41.70
2023-01-19T16:53:34.402Z,41.03
2023-01-19T16:56:06.817Z,43.90
2023-01-19T16:58:37.513Z,54.50
2023-01-19T17:01:17.239Z,58.20
2023-01-19T17:03:47.302Z,52.37
2023-01-19T17:06:20.087Z,48.63
2023-01-19T17:08:48.652Z,50.90
2023-01-19T17:11:20.628Z,55.47
2023-01-19T17:13:49.536Z,53.53
2023-01-19T17:16:19.985Z,46.97
2023-01-19T17:18:48.686Z,50.47
2023-01-19T17:21:19.297Z,50.37
2023-01-19T17:23:49.876Z,51.57
2023-01-19T17:26:19.615Z,50.47
2023-01-19T17:28:48.359Z,46.67
2023-01-19T17:31:20.130Z,48.63
2023-01-19T17:33:51.088Z,51.27
2023-01-19T17:36:22.477Z,44.37
2023-01-19T17:38:51.625Z,45.80
2023-01-19T17:41:22.155Z,49.97
2023-01-19T17:43:52.114Z,47.93
2023-01-19T17:46:24.118Z,45.60
2023-01-19T17:48:53.449Z,49.67
2023-01-19T17:51:23.732Z,52.37
2023-01-19T17:53:53.167Z,49.30
2023-01-19T17:56:25.914Z,48.60
2023-01-19T17:58:54.441Z,53.70
2023-01-19T18:01:26.371Z,54.37
2023-01-19T18:03:55.330Z,49.90
2023-01-19T18:06:24.199Z,50.17
2023-01-19T18:08:53.302Z,59.40
2023-01-19T18:11:22.679Z,65.03
2023-01-19T18:13:52.033Z,56.13
2023-01-19T18:16:24.708Z,63.50
2023-01-19T18:18:54.109Z,48.83
2023-01-19T18:21:23.898Z,55.10
2023-01-19T18:23:52.679Z,61.77
2023-01-19T18:26:23.239Z,60.40
2023-01-19T18:28:55.469Z,52.83
2023-01-19T18:31:27.118Z,67.30
2023-01-19T18:33:55.727Z,50.73
2023-01-19T18:36:24.540Z,46.50
2023-01-19T18:38:53.635Z,51.50
2023-01-19T18:41:23.195Z,46.40
2023-01-19T18:43:53.556Z,65.00
2023-01-19T18:46:22.535Z,58.83
2023-01-19T18:48:53.035Z,55.03
2023-01-19T18:51:21.848Z,67.30
2023-01-19T18:53:50.336Z,77.27
2023-01-19T18:56:19.255Z,69.27
2023-01-19T18:58:47.643Z,75.20
2023-01-19T19:01:21.883Z,76.80
2023-01-19T19:03:52.263Z,68.40
2023-01-19T19:06:21.724Z,79.03
2023-01-19T19:08:51.434Z,73.03
2023-01-19T19:11:21.276Z,72.70
2023-01-19T19:13:53.307Z,71.37
2023-01-19T19:16:22.229Z,69.37
2023-01-19T19:18:52.376Z,62.50
2023-01-19T19:21:23.962Z,63.33
2023-01-19T19:23:53.789Z,68.30
2023-01-19T19:26:24.333Z,60.30
2023-01-19T19:28:52.996Z,53.47
2023-01-19T19:31:25.516Z,63.87
2023-01-19T19:33:59.500Z,65.87
2023-01-19T19:36:29.727Z,65.17
2023-01-19T19:38:59.863Z,76.53
2023-01-19T19:41:29.706Z,72.43
2023-01-19T19:43:58.245Z,61.03
2023-01-19T19:46:28.320Z,62.03
2023-01-19T19:48:58.331Z,74.07
2023-01-19T19:51:29.104Z,73.17
2023-01-19T19:53:59.762Z,61.20
2023-01-19T19:56:30.821Z,71.30
2023-01-19T19:59:00.886Z,78.13
2023-01-19T20:01:33.432Z,69.43
2023-01-19T20:04:08.681Z,66.93
2023-01-19T20:06:40.333Z,71.97
2023-01-19T20:09:12.602Z,61.50
2023-01-19T20:11:42.856Z,50.03
2023-01-19T20:14:16.184Z,45.13
2023-01-19T20:16:45.818Z,46.10
2023-01-19T20:19:17.897Z,55.40
2023-01-19T20:21:47.050Z,58.53
2023-01-19T20:24:17.868Z,51.97
2023-01-19T20:26:48.940Z,51.67
2023-01-19T20:29:17.989Z,43.87
2023-01-19T20:31:48.986Z,44.77
2023-01-19T20:34:21.737Z,46.60
2023-01-19T20:36:53.258Z,45.63
2023-01-19T20:39:23.053Z,58.07
2023-01-19T20:41:52.588Z,55.87
2023-01-19T20:44:23.299Z,59.00
2023-01-19T20:46:53.024Z,56.17
2023-01-19T20:49:23.337Z,61.77
2023-01-19T20:51:53.581Z,53.73
2023-01-19T20:54:24.604Z,50.30
2023-01-19T20:56:53.567Z,63.83
2023-01-19T20:59:22.456Z,50.33
2023-01-19T21:01:51.922Z,55.10
2023-01-19T21:04:22.400Z,59.93
2023-01-19T21:06:51.433Z,61.50
2023-01-19T21:09:19.945Z,59.60
2023-01-19T21:11:49.074Z,63.57
2023-01-19T21:14:17.635Z,59.07
2023-01-19T21:16:46.870Z,59.20
2023-01-19T21:19:15.605Z,57.77
2023-01-19T21:21:47.016Z,67.60
2023-01-19T21:24:15.690Z,67.70
2023-01-19T21:26:44.938Z,67.97
2023-01-19T21:29:14.054Z,65.03
2023-01-19T21:31:43.250Z,70.37
2023-01-19T21:34:12.072Z,69.10
2023-01-19T21:36:41.627Z,66.80
2023-01-19T21:39:12.023Z,72.97
2023-01-19T21:41:43.231Z,71.83
2023-01-19T21:44:13.229Z,73.50
2023-01-19T21:46:42.349Z,73.33
2023-01-19T21:49:20.756Z,76.37
2023-01-19T21:51:50.533Z,70.83
2023-01-19T21:54:20.456Z,73.67
2023-01-19T21:56:49.190Z,70.23
2023-01-19T21:59:20.220Z,85.70
2023-01-19T22:01:49.683Z,80.03
2023-01-19T22:04:18.332Z,86.60
2023-01-19T22:06:47.883Z,87.03
2023-01-19T22:09:16.250Z,83.90
2023-01-19T22:11:46.358Z,84.07
2023-01-19T22:14:14.936Z,78.83
2023-01-19T22:16:43.732Z,77.13
2023-01-19T22:19:14.334Z,78.43
2023-01-19T22:21:43.222Z,81.23
2023-01-19T22:24:12.864Z,82.33
2023-01-19T22:26:41.628Z,78.60
2023-01-19T22:29:13.300Z,76.20
2023-01-19T22:31:43.124Z,74.23
2023-01-19T22:34:11.821Z,70.37
2023-01-19T22:36:40.778Z,69.87
2023-01-19T22:39:10.862Z,62.73
2023-01-19T22:41:40.749Z,59.13
2023-01-19T22:44:13.134Z,63.90
2023-01-19T22:46:41.833Z,71.90
2023-01-19T22:49:14.000Z,73.87
2023-01-19T22:51:43.423Z,72.77
2023-01-19T22:54:12.118Z,80.47
2023-01-19T22:56:41.821Z,76.37
2023-01-19T22:59:10.685Z,78.93
2023-01-19T23:01:43.750Z,81.43
2023-01-19T23:04:14.938Z,70.67
2023-01-19T23:06:46.887Z,80.13
2023-01-19T23:09:15.856Z,67.97
2023-01-19T23:11:48.052Z,72.07
2023-01-19T23:14:18.307Z,79.60
2023-01-19T23:16:48.846Z,75.73
2023-01-19T23:19:18.118Z,61.47
2023-01-19T23:21:47.148Z,59.57
2023-01-19T23:24:15.677Z,60.50
2023-01-19T23:26:44.428Z,65.30
2023-01-19T23:29:15.198Z,72.97
2023-01-19T23:31:45.943Z,75.80
2023-01-19T23:34:16.252Z,60.30
2023-01-19T23:36:45.597Z,71.50
2023-01-19T23:39:15.715Z,59.03
2023-01-19T23:41:44.605Z,61.67
2023-01-19T23:44:13.692Z,79.27
2023-01-19T23:46:43.839Z,72.13
2023-01-19T23:49:12.571Z,75.73
2023-01-19T23:51:43.180Z,72.17
2023-01-19T23:54:12.248Z,67.17
2023-01-19T23:56:42.564Z,68.90
2023-01-19T23:59:12.786Z,74.70
